Time;durP1;ratioP1;P1;durP2;ratioP2;P2;SDS_P1;SDS_P2;PMS_P1;PMS_P2;Temp;Humidity;BMP_temperature;BMP_pressure;BME280_temperature;BME280_humidity;BME280_pressure;Samples;Min_cycle;Max_cycle;Signal;HPM_P1;HPM_P2
2021/08/09 00:02:25;;;;;;;2.47;0.68;;;14.20;92.60;;;;;;5051528;28;20463;-69
2021/08/09 00:04:52;;;;;;;4.20;0.90;;;14.20;92.60;;;;;;5051345;28;20075;-72
2021/08/09 00:07:18;;;;;;;5.38;1.63;;;14.20;92.70;;;;;;5053200;28;20089;-70
2021/08/09 00:09:45;;;;;;;6.53;1.63;;;14.20;92.70;;;;;;5049685;28;20018;-71
2021/08/09 00:12:11;;;;;;;7.45;1.42;;;14.20;92.50;;;;;;5053811;28;20519;-70
2021/08/09 00:14:39;;;;;;;2.22;1.00;;;14.20;92.40;;;;;;5050871;28;20410;-70
2021/08/09 00:17:10;;;;;;;6.22;1.40;;;14.20;92.30;;;;;;5054034;28;20029;-72
2021/08/09 00:19:37;;;;;;;5.63;1.52;;;14.20;92.30;;;;;;5071466;28;20435;-74
2021/08/09 00:22:03;;;;;;;4.50;1.38;;;14.20;92.20;;;;;;5053259;28;20016;-73
2021/08/09 00:24:30;;;;;;;7.38;2.10;;;14.20;92.10;;;;;;5049673;28;20071;-72
2021/08/09 00:26:56;;;;;;;3.92;1.77;;;14.20;92.00;;;;;;5050570;28;20049;-70
2021/08/09 00:29:23;;;;;;;5.75;1.50;;;14.20;91.80;;;;;;5051666;28;20028;-72
2021/08/09 00:31:49;;;;;;;6.28;1.67;;;14.20;91.70;;;;;;5056081;28;20025;-70
2021/08/09 00:34:16;;;;;;;14.93;3.35;;;14.20;91.60;;;;;;5053006;28;20008;-71
2021/08/09 00:36:42;;;;;;;7.82;2.15;;;14.20;91.40;;;;;;5054126;28;20466;-71
2021/08/09 00:39:09;;;;;;;4.07;1.33;;;14.20;91.30;;;;;;5051223;28;20066;-70
2021/08/09 00:41:35;;;;;;;7.43;2.08;;;14.20;91.10;;;;;;5051761;28;20052;-70
2021/08/09 00:44:02;;;;;;;7.22;3.10;;;14.10;91.10;;;;;;5057833;28;20505;-69
2021/08/09 00:46:29;;;;;;;8.27;1.70;;;14.10;90.90;;;;;;5048118;28;20010;-71
2021/08/09 00:48:56;;;;;;;12.27;3.00;;;14.10;90.90;;;;;;5050547;28;20056;-71
2021/08/09 00:51:23;;;;;;;7.93;2.33;;;14.10;90.80;;;;;;5051643;28;20052;-70
2021/08/09 00:53:50;;;;;;;6.60;2.10;;;14.10;90.60;;;;;;5051812;28;20090;-70
2021/08/09 00:56:17;;;;;;;10.23;2.47;;;14.10;90.60;;;;;;5049586;28;20111;-70
2021/08/09 00:58:44;;;;;;;7.35;2.50;;;14.20;90.60;;;;;;5049263;28;20556;-70
2021/08/09 01:01:10;;;;;;;4.93;1.88;;;14.20;90.60;;;;;;5050986;28;20083;-69
2021/08/09 01:03:37;;;;;;;7.10;3.13;;;14.20;90.50;;;;;;5049570;28;20021;-71
2021/08/09 01:06:03;;;;;;;6.65;2.15;;;14.20;90.50;;;;;;5053091;28;20048;-71
2021/08/09 01:08:57;;;;;;;8.43;3.15;;;14.20;90.40;;;;;;5052264;28;20025;-70
2021/08/09 01:11:44;;;;;;;5.28;1.67;;;14.20;90.30;;;;;;5047664;28;20025;-70
2021/08/09 01:14:42;;;;;;;7.97;2.50;;;14.20;90.30;;;;;;5049311;28;20021;-73
2021/08/09 01:17:10;;;;;;;8.30;3.03;;;14.10;90.40;;;;;;5056029;28;20032;-70
2021/08/09 01:19:58;;;;;;;6.38;2.40;;;14.10;90.50;;;;;;5054828;28;20016;-71
2021/08/09 01:22:50;;;;;;;8.98;2.25;;;14.10;90.70;;;;;;5057281;28;20360;-70
2021/08/09 01:25:45;;;;;;;5.85;2.72;;;14.10;90.80;;;;;;5048743;28;20021;-70
2021/08/09 01:28:13;;;;;;;7.30;2.03;;;14.00;90.90;;;;;;5052667;28;20017;-71
2021/08/09 01:30:41;;;;;;;8.85;1.85;;;14.00;91.00;;;;;;5050694;28;20017;-71
2021/08/09 01:33:10;;;;;;;6.50;2.63;;;14.00;91.00;;;;;;5052444;28;20422;-71
2021/08/09 01:35:37;;;;;;;8.18;2.28;;;14.00;90.80;;;;;;5048838;28;20028;-73
2021/08/09 01:38:05;;;;;;;10.60;2.25;;;14.00;90.90;;;;;;5053961;28;20071;-73
2021/08/09 01:40:35;;;;;;;12.65;2.63;;;14.00;90.80;;;;;;5049814;28;20029;-72
2021/08/09 01:43:03;;;;;;;4.35;1.83;;;14.00;90.80;;;;;;5047415;28;20021;-70
2021/08/09 01:45:30;;;;;;;8.95;1.85;;;14.00;90.70;;;;;;5047594;28;20041;-72
2021/08/09 01:47:58;;;;;;;7.20;2.83;;;14.00;90.60;;;;;;5042799;28;20407;-72
2021/08/09 01:50:25;;;;;;;9.43;2.95;;;14.00;90.60;;;;;;5048320;28;20021;-70
2021/08/09 01:52:51;;;;;;;7.25;2.20;;;13.90;90.60;;;;;;5051587;28;20468;-71
2021/08/09 01:55:19;;;;;;;7.20;2.20;;;13.90;90.70;;;;;;5045601;28;20508;-71
2021/08/09 01:57:46;;;;;;;8.70;2.67;;;13.80;90.60;;;;;;5052690;28;20064;-72
2021/08/09 02:00:16;;;;;;;7.47;3.28;;;13.80;90.40;;;;;;5055768;28;20044;-69
2021/08/09 02:02:43;;;;;;;11.75;2.20;;;13.70;90.20;;;;;;5050083;28;20025;-73
2021/08/09 02:05:12;;;;;;;16.42;1.80;;;13.80;90.10;;;;;;5048051;28;20040;-70
2021/08/09 02:07:44;;;;;;;8.02;2.65;;;13.80;89.90;;;;;;5046266;28;20005;-71
2021/08/09 02:10:17;;;;;;;7.00;2.80;;;13.70;89.60;;;;;;5048484;28;20874;-73
2021/08/09 02:13:13;;;;;;;10.43;2.30;;;13.70;89.20;;;;;;5048751;28;20013;-70
2021/08/09 02:15:57;;;;;;;6.82;1.60;;;13.80;89.20;;;;;;5050150;28;20028;-71
2021/08/09 02:19:01;;;;;;;10.05;2.50;;;13.80;89.10;;;;;;5049554;28;20025;-72
2021/08/09 02:21:32;;;;;;;8.63;1.50;;;13.80;88.70;;;;;;5056351;28;20025;-73
2021/08/09 02:24:28;;;;;;;14.13;3.08;;;13.70;88.50;;;;;;5051765;28;20052;-70
2021/08/09 02:27:03;;;;;;;6.13;1.67;;;13.80;88.80;;;;;;5050906;28;20037;-71
2021/08/09 02:29:33;;;;;;;11.80;2.72;;;13.80;89.00;;;;;;5047756;28;20047;-72
2021/08/09 02:32:02;;;;;;;12.55;2.72;;;13.70;89.40;;;;;;5049486;28;20464;-70
2021/08/09 02:34:32;;;;;;;8.80;2.60;;;13.70;89.30;;;;;;5051271;28;20116;-70
2021/08/09 02:37:03;;;;;;;9.10;2.10;;;13.80;89.30;;;;;;5050589;28;20037;-73
2021/08/09 02:39:34;;;;;;;10.82;2.22;;;13.70;89.40;;;;;;5054621;28;20380;-72
2021/08/09 02:42:01;;;;;;;6.95;1.90;;;13.70;89.20;;;;;;5052844;28;20021;-72
2021/08/09 02:44:29;;;;;;;7.40;2.47;;;13.70;88.90;;;;;;5043814;28;20021;-70
2021/08/09 02:46:57;;;;;;;12.90;3.20;;;13.70;89.00;;;;;;5047758;28;20515;-73
2021/08/09 02:49:24;;;;;;;13.93;3.10;;;13.70;89.20;;;;;;5051545;28;20365;-72
2021/08/09 02:51:52;;;;;;;12.13;2.80;;;13.80;89.40;;;;;;5043531;28;20028;-73
2021/08/09 02:54:20;;;;;;;6.95;1.75;;;13.80;89.20;;;;;;5050774;28;20132;-71
2021/08/09 02:56:47;;;;;;;13.18;1.95;;;13.70;89.20;;;;;;5049500;28;20072;-74
2021/08/09 02:59:15;;;;;;;10.35;2.08;;;13.70;89.20;;;;;;5050131;28;20020;-73
2021/08/09 03:01:42;;;;;;;4.65;1.88;;;13.70;89.30;;;;;;5047429;28;20021;-72
2021/08/09 03:04:14;;;;;;;9.77;2.50;;;13.70;89.70;;;;;;5051681;28;20442;-73
2021/08/09 03:06:41;;;;;;;7.80;2.30;;;13.60;88.90;;;;;;5054582;28;20021;-73
2021/08/09 03:09:08;;;;;;;4.95;1.60;;;13.60;88.50;;;;;;5048285;28;20054;-73
2021/08/09 03:11:35;;;;;;;7.47;2.38;;;13.60;88.40;;;;;;5050423;28;20017;-71
2021/08/09 03:14:02;;;;;;;11.70;1.98;;;13.60;88.40;;;;;;5050373;28;20009;-73
2021/08/09 03:16:29;;;;;;;6.93;2.08;;;13.60;88.30;;;;;;5049923;28;20977;-71
2021/08/09 03:18:55;;;;;;;6.40;1.77;;;13.60;88.10;;;;;;5048120;28;20044;-73
2021/08/09 03:21:22;;;;;;;9.15;1.85;;;13.60;87.90;;;;;;5049811;28;20029;-73
2021/08/09 03:23:48;;;;;;;6.88;1.88;;;13.50;87.90;;;;;;5049523;28;20032;-71
2021/08/09 03:26:15;;;;;;;7.15;1.60;;;13.60;87.60;;;;;;5050297;28;20021;-72
2021/08/09 03:28:41;;;;;;;11.70;2.92;;;13.60;87.60;;;;;;5051461;28;20068;-74
2021/08/09 03:31:08;;;;;;;6.15;1.50;;;13.50;87.70;;;;;;5037475;28;20036;-71
2021/08/09 03:33:34;;;;;;;10.32;2.22;;;13.50;87.60;;;;;;5048453;28;20015;-73
2021/08/09 03:36:01;;;;;;;5.45;1.52;;;13.50;87.50;;;;;;5046610;28;20112;-73
2021/08/09 03:38:27;;;;;;;7.10;1.40;;;13.50;87.40;;;;;;5051455;28;20032;-71
2021/08/09 03:40:54;;;;;;;7.90;1.60;;;13.40;87.30;;;;;;5054626;28;20036;-72
2021/08/09 03:43:20;;;;;;;8.75;1.73;;;13.50;87.40;;;;;;5049857;28;20085;-71
2021/08/09 03:45:46;;;;;;;12.88;1.70;;;13.40;87.20;;;;;;5048512;28;20494;-71
2021/08/09 03:48:13;;;;;;;12.45;2.63;;;13.40;87.40;;;;;;5052780;28;20020;-71
2021/08/09 03:50:39;;;;;;;6.18;1.77;;;13.40;86.40;;;;;;5052113;28;20056;-72
2021/08/09 03:53:06;;;;;;;5.45;1.30;;;13.40;86.20;;;;;;5052244;28;20025;-71
2021/08/09 03:55:32;;;;;;;17.92;8.68;;;13.40;86.10;;;;;;5053780;28;20044;-72
2021/08/09 03:57:59;;;;;;;32.47;21.10;;;13.40;86.30;;;;;;5057589;28;20025;-72
2021/08/09 04:00:26;;;;;;;12.48;8.32;;;13.40;86.90;;;;;;5051680;28;20027;-73
2021/08/09 04:02:53;;;;;;;4.93;1.80;;;13.50;86.90;;;;;;5049910;28;20051;-72
2021/08/09 04:05:21;;;;;;;6.47;0.88;;;13.40;86.80;;;;;;5055024;28;20059;-71
2021/08/09 04:07:48;;;;;;;3.10;1.10;;;13.50;86.70;;;;;;5050979;28;20052;-69
2021/08/09 04:10:15;;;;;;;6.40;1.10;;;13.50;86.50;;;;;;5054597;28;20425;-70
2021/08/09 04:12:42;;;;;;;5.00;1.92;;;13.50;86.40;;;;;;5048903;28;20519;-69
2021/08/09 04:15:08;;;;;;;4.88;1.20;;;13.40;86.40;;;;;;5051081;28;20079;-69
2021/08/09 04:17:35;;;;;;;7.05;1.40;;;13.40;86.30;;;;;;5051719;28;20483;-70
2021/08/09 04:20:02;;;;;;;2.13;0.98;;;13.30;86.30;;;;;;5051820;28;20015;-70
2021/08/09 04:22:28;;;;;;;6.20;1.23;;;13.30;87.10;;;;;;5048262;28;20079;-71
2021/08/09 04:24:55;;;;;;;8.50;1.83;;;13.20;86.70;;;;;;5053004;28;20097;-70
2021/08/09 04:27:21;;;;;;;3.30;1.10;;;13.20;86.80;;;;;;5054605;28;20479;-72
2021/08/09 04:29:47;;;;;;;4.32;1.20;;;13.20;86.80;;;;;;5051036;28;21478;-71
2021/08/09 04:32:19;;;;;;;4.65;1.02;;;13.10;86.90;;;;;;5053487;28;20028;-72
2021/08/09 04:34:46;;;;;;;5.53;1.67;;;13.10;87.30;;;;;;5056484;28;20099;-72
2021/08/09 04:37:13;;;;;;;2.13;1.10;;;13.00;87.60;;;;;;5054470;28;20443;-73
2021/08/09 04:39:40;;;;;;;8.63;1.67;;;12.90;88.00;;;;;;5051605;28;20051;-72
2021/08/09 04:42:06;;;;;;;6.35;3.35;;;12.90;88.30;;;;;;5049269;28;20049;-72
2021/08/09 04:44:33;;;;;;;33.83;24.30;;;12.90;88.90;;;;;;5056434;28;20023;-73
2021/08/09 04:46:59;;;;;;;18.80;11.40;;;12.90;89.20;;;;;;5052410;28;20021;-71
2021/08/09 04:49:26;;;;;;;9.88;3.45;;;12.90;89.20;;;;;;5052758;28;20029;-71
2021/08/09 04:51:53;;;;;;;5.68;1.48;;;12.90;88.80;;;;;;5051204;28;20023;-70
2021/08/09 04:54:19;;;;;;;3.45;1.08;;;12.90;88.60;;;;;;5056081;28;20149;-71
2021/08/09 04:56:46;;;;;;;8.52;2.42;;;12.90;88.50;;;;;;5046962;28;20512;-71
2021/08/09 04:59:12;;;;;;;3.13;1.20;;;12.90;88.10;;;;;;5051973;28;20017;-71
2021/08/09 05:01:39;;;;;;;6.65;1.75;;;13.00;88.10;;;;;;5052492;28;20024;-72
2021/08/09 05:04:05;;;;;;;8.50;1.55;;;13.00;87.90;;;;;;5055410;28;20373;-71
2021/08/09 05:06:35;;;;;;;5.10;1.48;;;13.00;87.50;;;;;;5046695;28;20063;-74
2021/08/09 05:09:01;;;;;;;3.38;1.17;;;13.00;87.20;;;;;;5050674;28;20362;-72
2021/08/09 05:11:28;;;;;;;7.07;1.38;;;13.00;86.90;;;;;;5051060;28;20017;-71
2021/08/09 05:13:56;;;;;;;9.15;2.97;;;13.10;86.60;;;;;;5051912;28;20101;-71
2021/08/09 05:16:23;;;;;;;7.63;2.33;;;13.10;86.30;;;;;;5051836;28;20037;-72
2021/08/09 05:18:51;;;;;;;11.15;1.88;;;13.10;86.20;;;;;;5048504;28;20086;-73
2021/08/09 05:21:18;;;;;;;10.55;2.72;;;13.10;86.00;;;;;;5048710;28;20044;-72
2021/08/09 05:23:48;;;;;;;7.90;2.05;;;13.10;86.20;;;;;;5049375;28;20033;-72
2021/08/09 05:26:15;;;;;;;7.45;1.90;;;13.10;86.50;;;;;;5051853;28;20020;-74
2021/08/09 05:28:41;;;;;;;6.57;1.63;;;13.00;86.70;;;;;;5051518;28;20020;-73
2021/08/09 05:31:08;;;;;;;5.97;1.38;;;13.00;86.50;;;;;;5053652;28;21380;-71
2021/08/09 05:33:35;;;;;;;12.38;7.20;;;12.90;86.60;;;;;;5051703;28;20063;-73
2021/08/09 05:36:03;;;;;;;38.85;27.38;;;12.90;87.10;;;;;;5052072;28;20507;-73
2021/08/09 05:38:29;;;;;;;25.45;16.38;;;12.90;87.60;;;;;;5049088;28;20548;-73
2021/08/09 05:40:56;;;;;;;7.35;3.85;;;12.90;86.70;;;;;;5046409;28;20016;-72
2021/08/09 05:43:22;;;;;;;5.55;2.20;;;12.90;86.80;;;;;;5047609;28;20107;-73
2021/08/09 05:45:49;;;;;;;6.40;2.10;;;12.90;86.80;;;;;;5049755;28;20630;-71
2021/08/09 05:48:16;;;;;;;5.57;1.77;;;12.80;86.90;;;;;;5051584;28;20072;-74
2021/08/09 05:50:42;;;;;;;8.82;2.00;;;12.80;87.10;;;;;;5047528;28;20499;-73
2021/08/09 05:53:09;;;;;;;7.35;1.88;;;12.80;86.90;;;;;;5052366;28;20025;-72
2021/08/09 05:55:35;;;;;;;5.18;1.90;;;12.80;86.90;;;;;;5046984;28;20406;-73
2021/08/09 05:58:02;;;;;;;7.22;1.77;;;12.80;86.80;;;;;;5047566;28;20028;-72
2021/08/09 06:00:29;;;;;;;5.80;1.58;;;12.70;87.00;;;;;;5050764;28;20029;-73
2021/08/09 06:02:56;;;;;;;6.65;1.75;;;12.70;87.20;;;;;;5045898;28;20026;-73
2021/08/09 06:05:22;;;;;;;7.20;2.78;;;12.70;87.40;;;;;;5044037;28;20025;-73
2021/08/09 06:07:49;;;;;;;7.55;1.70;;;12.70;87.20;;;;;;5041041;28;20029;-72
2021/08/09 06:10:15;;;;;;;5.55;1.85;;;12.70;86.90;;;;;;5045968;28;20099;-74
2021/08/09 06:12:42;;;;;;;11.27;1.70;;;12.70;86.00;;;;;;5043568;28;20024;-69
2021/08/09 06:15:09;;;;;;;5.65;1.95;;;12.70;85.70;;;;;;5046003;28;20029;-73
2021/08/09 06:17:35;;;;;;;17.73;10.45;;;12.70;85.40;;;;;;5052155;28;20029;-72
2021/08/09 06:20:03;;;;;;;22.85;15.73;;;12.80;85.40;;;;;;5052066;28;20502;-68
2021/08/09 06:22:29;;;;;;;18.23;10.20;;;12.80;85.30;;;;;;5046541;28;20036;-71
2021/08/09 06:24:56;;;;;;;7.00;2.75;;;12.80;84.80;;;;;;5048608;28;20020;-70
2021/08/09 06:27:22;;;;;;;6.20;2.17;;;12.80;84.60;;;;;;5051325;28;20021;-71
2021/08/09 06:29:49;;;;;;;9.02;2.58;;;12.80;84.90;;;;;;5049024;28;20048;-71
2021/08/09 06:32:16;;;;;;;10.15;2.17;;;12.80;85.10;;;;;;5046246;28;20374;-72
2021/08/09 06:34:42;;;;;;;7.22;2.50;;;12.80;85.40;;;;;;5042939;28;20381;-73
2021/08/09 06:37:09;;;;;;;4.13;2.13;;;12.80;86.00;;;;;;5051461;28;20119;-70
2021/08/09 06:39:35;;;;;;;7.65;1.88;;;12.80;86.60;;;;;;5047359;28;20023;-72
2021/08/09 06:42:03;;;;;;;8.60;2.00;;;12.70;86.70;;;;;;5050537;28;20056;-72
2021/08/09 06:44:33;;;;;;;9.35;2.35;;;12.80;86.90;;;;;;5048146;28;20033;-73
2021/08/09 06:47:00;;;;;;;5.72;2.53;;;12.80;87.10;;;;;;5050908;28;20380;-72
2021/08/09 06:49:27;;;;;;;6.43;1.75;;;12.80;87.30;;;;;;5049026;28;20376;-72
2021/08/09 06:51:54;;;;;;;8.32;1.88;;;12.90;87.50;;;;;;5044239;28;20096;-71
2021/08/09 06:54:24;;;;;;;41.97;24.20;;;13.00;87.70;;;;;;5049688;28;20051;-72
2021/08/09 06:56:51;;;;;;;18.92;5.97;;;13.00;87.70;;;;;;5050000;28;20032;-73
2021/08/09 06:59:18;;;;;;;7.95;2.17;;;13.10;85.60;;;;;;5052674;28;20040;-72
2021/08/09 07:01:45;;;;;;;7.63;2.03;;;13.20;84.80;;;;;;5044946;28;20056;-78
2021/08/09 07:04:12;;;;;;;6.80;1.63;;;13.30;84.40;;;;;;5052298;28;20032;-74
2021/08/09 07:06:38;;;;;;;4.65;2.20;;;13.30;84.10;;;;;;5051409;28;20346;-72
2021/08/09 07:09:05;;;;;;;7.95;1.70;;;13.40;84.10;;;;;;5050971;28;20432;-71
2021/08/09 07:11:31;;;;;;;16.70;10.10;;;13.40;84.50;;;;;;5049412;28;20009;-72
2021/08/09 07:13:58;;;;;;;12.70;4.22;;;13.50;85.10;;;;;;5053944;28;20013;-73
2021/08/09 07:16:25;;;;;;;2.50;1.20;;;13.60;85.10;;;;;;5052950;28;20106;-74
2021/08/09 07:18:55;;;;;;;4.68;1.00;;;13.60;84.90;;;;;;5053396;28;20389;-73
2021/08/09 07:21:21;;;;;;;6.70;1.40;;;13.60;84.70;;;;;;5055220;28;20033;-74
2021/08/09 07:23:48;;;;;;;5.20;1.80;;;13.60;85.00;;;;;;5055895;28;20017;-74
2021/08/09 07:26:15;;;;;;;4.93;1.80;;;13.60;84.80;;;;;;5056931;28;20024;-76
2021/08/09 07:28:41;;;;;;;1.85;1.17;;;13.60;84.90;;;;;;5052452;28;20040;-76
2021/08/09 07:31:08;;;;;;;7.28;1.10;;;13.60;84.80;;;;;;5054529;28;20034;-75
2021/08/09 07:33:34;;;;;;;6.28;1.10;;;13.60;84.50;;;;;;5050687;28;20376;-75
2021/08/09 07:36:04;;;;;;;3.30;1.38;;;13.60;83.90;;;;;;5054286;28;20104;-75
2021/08/09 07:38:32;;;;;;;4.47;1.13;;;13.50;83.70;;;;;;5054519;28;20031;-75
2021/08/09 07:40:58;;;;;;;2.70;1.30;;;13.60;83.50;;;;;;5049820;28;20446;-75
2021/08/09 07:43:25;;;;;;;5.32;2.00;;;13.60;83.60;;;;;;5049695;28;20032;-76
2021/08/09 07:45:51;;;;;;;5.40;2.00;;;13.60;83.70;;;;;;5058461;28;20032;-75
2021/08/09 07:48:18;;;;;;;6.20;1.90;;;13.60;83.80;;;;;;5051307;28;20017;-75
2021/08/09 07:50:44;;;;;;;4.63;2.35;;;13.60;83.80;;;;;;5051028;28;20017;-75
2021/08/09 07:53:11;;;;;;;5.30;2.20;;;13.70;83.70;;;;;;5056364;28;20017;-75
2021/08/09 07:55:37;;;;;;;5.75;2.53;;;13.70;83.70;;;;;;5051017;28;20028;-75
2021/08/09 07:58:04;;;;;;;3.78;1.40;;;13.70;83.90;;;;;;5056012;28;20083;-76
2021/08/09 08:00:30;;;;;;;3.88;1.60;;;13.70;83.50;;;;;;5054411;28;20384;-75
2021/08/09 08:02:57;;;;;;;2.90;1.10;;;13.80;83.50;;;;;;5054640;28;20460;-75
2021/08/09 08:05:24;;;;;;;5.25;1.33;;;13.80;83.60;;;;;;5049771;28;20571;-75
2021/08/09 08:07:50;;;;;;;5.60;1.38;;;13.80;83.10;;;;;;5053698;28;20476;-75
2021/08/09 08:10:16;;;;;;;2.50;1.38;;;13.80;83.20;;;;;;5050543;28;20041;-75
2021/08/09 08:12:43;;;;;;;3.40;1.23;;;13.90;82.60;;;;;;5044475;28;20076;-76
2021/08/09 08:15:10;;;;;;;4.32;1.08;;;13.90;82.20;;;;;;5054439;28;20028;-75
2021/08/09 08:17:38;;;;;;;3.70;1.20;;;13.90;81.60;;;;;;5049337;28;20032;-75
2021/08/09 08:20:05;;;;;;;4.70;1.58;;;14.00;81.70;;;;;;5052330;28;20052;-76
2021/08/09 08:22:31;;;;;;;13.07;1.58;;;14.10;81.20;;;;;;5050015;28;20029;-75
2021/08/09 08:24:58;;;;;;;7.25;1.33;;;14.10;81.40;;;;;;5048890;28;20032;-76
2021/08/09 08:27:25;;;;;;;4.07;1.70;;;14.20;81.50;;;;;;5054667;28;20476;-76
2021/08/09 08:29:51;;;;;;;7.05;1.60;;;14.20;81.20;;;;;;5051769;28;20027;-76
2021/08/09 08:32:18;;;;;;;4.78;1.90;;;14.30;81.00;;;;;;5054037;28;20021;-76
2021/08/09 08:34:44;;;;;;;7.20;1.30;;;14.40;79.70;;;;;;5047364;28;20096;-75
2021/08/09 08:37:11;;;;;;;5.10;1.30;;;14.40;79.70;;;;;;5048996;28;20025;-76
2021/08/09 08:39:37;;;;;;;9.15;1.45;;;14.40;80.10;;;;;;5051316;28;20028;-76
2021/08/09 08:42:04;;;;;;;9.85;2.78;;;14.40;80.00;;;;;;5046702;28;20021;-76
2021/08/09 08:44:31;;;;;;;7.20;1.55;;;14.40;79.70;;;;;;5051398;28;20020;-76
2021/08/09 08:46:58;;;;;;;6.38;1.80;;;14.40;79.60;;;;;;5054800;28;20013;-75
2021/08/09 08:49:26;;;;;;;5.95;1.10;;;14.40;79.40;;;;;;5047223;28;20502;-76
2021/08/09 08:51:53;;;;;;;7.30;1.40;;;14.30;79.40;;;;;;5054051;28;20028;-76
2021/08/09 08:54:20;;;;;;;5.45;1.50;;;14.30;78.70;;;;;;5053350;28;20138;-76
2021/08/09 08:56:47;;;;;;;5.70;1.60;;;14.30;78.90;;;;;;5045808;28;20036;-76
2021/08/09 08:59:15;;;;;;;11.25;2.22;;;14.30;79.20;;;;;;5051397;28;20040;-76
2021/08/09 09:01:53;;;;;;;11.63;1.77;;;14.30;79.50;;;;;;5047258;28;20016;-76
2021/08/09 09:04:35;;;;;;;6.38;1.90;;;14.40;79.90;;;;;;5051552;28;20021;-76
2021/08/09 09:07:07;;;;;;;4.13;1.92;;;14.50;79.70;;;;;;5048471;28;20032;-75
2021/08/09 09:09:39;;;;;;;6.63;1.90;;;14.60;78.60;;;;;;5050068;28;20048;-76
2021/08/09 09:12:18;;;;;;;5.47;1.88;;;14.60;78.00;;;;;;5051515;28;20014;-76
2021/08/09 09:14:59;;;;;;;11.20;3.63;;;14.80;76.70;;;;;;5049723;28;20028;-74
2021/08/09 09:17:33;;;;;;;4.97;1.80;;;14.90;76.70;;;;;;5051522;28;20075;-76
2021/08/09 09:20:23;;;;;;;4.82;3.38;;;15.00;75.90;;;;;;5061248;28;20075;-76
2021/08/09 09:22:50;;;;;;;7.95;1.75;;;15.10;75.30;;;;;;5045629;28;20143;-77
2021/08/09 09:25:30;;;;;;;17.90;3.70;;;15.30;72.90;;;;;;5054838;28;20552;-75
2021/08/09 09:27:56;;;;;;;7.10;2.20;;;15.30;69.30;;;;;;5051544;28;20104;-77
2021/08/09 09:30:30;;;;;;;5.32;1.70;;;15.40;68.10;;;;;;5046628;28;20032;-76
2021/08/09 09:33:04;;;;;;;1.42;0.90;;;15.50;66.40;;;;;;5054272;28;20021;-76
2021/08/09 09:35:36;;;;;;;2.80;1.20;;;15.60;66.50;;;;;;5047236;28;20025;-76
2021/08/09 09:38:03;;;;;;;2.88;1.45;;;15.70;65.90;;;;;;5050736;28;20547;-77
2021/08/09 09:40:39;;;;;;;3.05;1.30;;;15.70;64.00;;;;;;5049194;28;20117;-77
2021/08/09 09:43:21;;;;;;;2.22;0.73;;;15.70;63.50;;;;;;5049209;28;20400;-77
2021/08/09 09:45:53;;;;;;;3.65;0.88;;;15.80;61.00;;;;;;5053815;28;20074;-77
2021/08/09 09:48:33;;;;;;;7.43;1.25;;;15.70;60.90;;;;;;5048133;28;20487;-78
2021/08/09 09:51:15;;;;;;;7.13;2.45;;;15.70;61.30;;;;;;5049174;28;20023;-77
2021/08/09 09:53:43;;;;;;;4.75;1.30;;;15.80;62.50;;;;;;5040734;28;20095;-77
2021/08/09 09:56:10;;;;;;;7.53;1.38;;;15.90;63.00;;;;;;5060812;28;20017;-77
2021/08/09 09:58:40;;;;;;;2.97;1.63;;;16.00;64.00;;;;;;5044799;28;20041;-76
2021/08/09 10:01:08;;;;;;;9.15;1.45;;;16.10;63.80;;;;;;5044114;28;20013;-77
2021/08/09 10:03:36;;;;;;;4.40;1.30;;;16.20;64.00;;;;;;5041065;28;20385;-77
2021/08/09 10:06:03;;;;;;;5.18;1.33;;;16.20;64.20;;;;;;5042792;28;20021;-76
2021/08/09 10:08:38;;;;;;;4.80;1.67;;;16.30;64.30;;;;;;5048926;28;20021;-77
2021/08/09 10:11:05;;;;;;;8.93;1.77;;;16.40;63.80;;;;;;5048802;28;20052;-74
2021/08/09 10:13:33;;;;;;;5.95;1.05;;;16.40;64.00;;;;;;5040548;28;20017;-77
2021/08/09 10:16:05;;;;;;;8.00;1.85;;;16.40;61.90;;;;;;5040902;28;20017;-77
2021/08/09 10:18:35;;;;;;;5.55;1.05;;;16.50;62.10;;;;;;5038558;28;20577;-77
2021/08/09 10:21:04;;;;;;;6.60;1.45;;;16.60;62.10;;;;;;5042490;28;20021;-74
2021/08/09 10:23:47;;;;;;;5.88;1.45;;;16.60;62.10;;;;;;5037065;28;20025;-76
2021/08/09 10:26:20;;;;;;;6.20;1.60;;;16.70;62.50;;;;;;5040793;28;20067;-76
2021/08/09 10:28:52;;;;;;;5.97;1.10;;;16.80;63.80;;;;;;5039474;28;20044;-77
2021/08/09 10:31:23;;;;;;;4.60;0.80;;;16.80;63.00;;;;;;5042621;28;20512;-77
2021/08/09 10:33:51;;;;;;;3.63;1.10;;;16.80;62.30;;;;;;5039984;28;20364;-77
2021/08/09 10:36:21;;;;;;;1.58;0.57;;;16.80;61.00;;;;;;5044555;28;20488;-76
2021/08/09 10:38:49;;;;;;;5.90;0.90;;;16.70;61.10;;;;;;5038881;28;20097;-76
2021/08/09 10:41:16;;;;;;;4.72;1.65;;;16.80;60.80;;;;;;5039275;28;20372;-75
2021/08/09 10:44:10;;;;;;;2.97;0.90;;;16.80;60.70;;;;;;5043948;28;20017;-76
2021/08/09 10:46:45;;;;;;;4.50;1.10;;;16.90;61.10;;;;;;5048362;28;20033;-75
2021/08/09 10:49:40;;;;;;;2.85;0.68;;;17.00;61.10;;;;;;5056973;28;20043;-76
2021/08/09 10:52:11;;;;;;;4.88;1.00;;;17.10;60.40;;;;;;5055501;28;20029;-76
2021/08/09 10:54:39;;;;;;;2.30;0.60;;;17.20;60.20;;;;;;5053336;28;20517;-76
2021/08/09 10:57:06;;;;;;;3.28;0.80;;;17.20;59.30;;;;;;5048829;28;20036;-75
2021/08/09 10:59:41;;;;;;;2.20;0.63;;;17.30;58.90;;;;;;5060211;28;20064;-75
2021/08/09 11:02:18;;;;;;;5.75;1.08;;;17.40;58.10;;;;;;5051228;28;20044;-75
2021/08/09 11:05:04;;;;;;;4.05;1.27;;;17.40;58.40;;;;;;5050683;28;20074;-75
2021/08/09 11:07:31;;;;;;;2.17;0.80;;;17.40;57.70;;;;;;5052410;28;20028;-75
2021/08/09 11:09:57;;;;;;;2.75;1.20;;;17.30;56.70;;;;;;5050157;28;20037;-74
2021/08/09 11:12:28;;;;;;;2.33;1.05;;;17.30;57.00;;;;;;5051474;28;20603;-75
2021/08/09 11:15:07;;;;;;;3.67;0.77;;;17.40;57.10;;;;;;5046368;28;20033;-73
2021/08/09 11:17:45;;;;;;;6.53;1.42;;;17.40;57.50;;;;;;5060616;28;20083;-74
2021/08/09 11:20:32;;;;;;;1.55;0.82;;;17.60;58.20;;;;;;5048315;28;20498;-74
2021/08/09 11:23:14;;;;;;;2.60;0.90;;;17.60;58.60;;;;;;5048642;28;20099;-75
2021/08/09 11:25:46;;;;;;;1.45;0.70;;;17.70;60.00;;;;;;5047302;28;20032;-74
2021/08/09 11:28:13;;;;;;;8.35;0.90;;;17.60;59.60;;;;;;5053436;28;20017;-74
2021/08/09 11:30:59;;;;;;;4.80;0.88;;;17.40;60.20;;;;;;5051796;28;20020;-73
2021/08/09 11:33:40;;;;;;;3.42;0.93;;;17.30;61.20;;;;;;5050937;28;20028;-73
2021/08/09 11:36:12;;;;;;;3.38;0.90;;;17.20;60.80;;;;;;5048180;28;20056;-75
2021/08/09 11:38:49;;;;;;;2.45;0.60;;;17.30;60.20;;;;;;5049468;28;20037;-74
2021/08/09 11:41:26;;;;;;;4.47;1.13;;;17.50;60.30;;;;;;5047288;28;20012;-75
2021/08/09 11:44:10;;;;;;;5.85;0.70;;;17.60;58.60;;;;;;5047565;28;20382;-75
2021/08/09 11:46:48;;;;;;;2.50;0.65;;;17.80;56.60;;;;;;5054063;28;20430;-76
2021/08/09 11:49:16;;;;;;;1.58;0.85;;;17.90;57.20;;;;;;5045771;28;20017;-76
2021/08/09 11:51:43;;;;;;;3.40;0.90;;;17.90;56.60;;;;;;5044089;28;20020;-76
2021/08/09 11:54:10;;;;;;;1.70;0.80;;;18.00;56.50;;;;;;5049991;28;20090;-75
2021/08/09 11:56:39;;;;;;;3.47;0.65;;;18.10;56.20;;;;;;5051383;28;20408;-74
2021/08/09 11:59:17;;;;;;;1.60;0.75;;;18.10;55.10;;;;;;5050321;28;20025;-76
2021/08/09 12:01:47;;;;;;;5.72;1.25;;;18.20;55.20;;;;;;5047464;28;20380;-75
2021/08/09 12:04:15;;;;;;;7.68;1.50;;;18.30;55.50;;;;;;5047545;28;20048;-76
2021/08/09 12:06:46;;;;;;;3.10;0.95;;;18.40;54.80;;;;;;5045474;28;20025;-76
2021/08/09 12:09:16;;;;;;;3.58;1.20;;;18.50;54.30;;;;;;5047893;28;20044;-75
2021/08/09 12:11:43;;;;;;;8.48;1.33;;;18.60;55.00;;;;;;5046788;28;20064;-77
2021/08/09 12:14:14;;;;;;;3.40;2.33;;;18.50;54.00;;;;;;5052276;28;20024;-75
2021/08/09 12:16:46;;;;;;;5.80;1.40;;;18.40;54.40;;;;;;5052428;28;20017;-75
2021/08/09 12:19:14;;;;;;;5.32;1.42;;;18.40;54.60;;;;;;5046960;28;20805;-75
2021/08/09 12:21:41;;;;;;;3.33;0.90;;;18.40;55.00;;;;;;5047807;28;20027;-75
2021/08/09 12:24:16;;;;;;;3.25;1.38;;;18.50;55.40;;;;;;5046848;28;20508;-75
2021/08/09 12:26:44;;;;;;;4.35;1.45;;;18.50;54.60;;;;;;5047033;28;20422;-75
2021/08/09 12:29:21;;;;;;;6.13;1.10;;;18.60;55.60;;;;;;5047109;28;20496;-73
2021/08/09 12:31:48;;;;;;;7.05;1.50;;;18.70;55.50;;;;;;5046359;28;20096;-72
2021/08/09 12:34:25;;;;;;;3.42;1.08;;;18.80;55.50;;;;;;5047241;28;20458;-73
2021/08/09 12:36:51;;;;;;;7.00;1.75;;;18.90;54.70;;;;;;5045257;28;20033;-71
2021/08/09 12:39:38;;;;;;;6.68;1.55;;;19.00;55.00;;;;;;5047233;28;20017;-74
2021/08/09 12:42:23;;;;;;;6.13;1.55;;;18.90;55.50;;;;;;5045034;28;20025;-71
2021/08/09 12:44:51;;;;;;;3.90;1.37;;;18.70;56.10;;;;;;5047655;28;20021;-74
2021/08/09 12:47:18;;;;;;;6.68;2.40;;;18.60;57.00;;;;;;5053379;28;20060;-76
2021/08/09 12:49:45;;;;;;;161.50;124.50;;;18.50;57.90;;;;;;5047620;28;20395;-71
2021/08/09 12:52:11;;;;;;;20.02;13.38;;;18.30;56.80;;;;;;5047584;28;20029;-73
2021/08/09 12:54:38;;;;;;;13.65;7.32;;;18.10;57.80;;;;;;5046769;28;20072;-73
2021/08/09 12:57:04;;;;;;;5.15;2.97;;;18.00;58.40;;;;;;5051557;28;20491;-73
2021/08/09 12:59:31;;;;;;;6.22;1.80;;;18.00;61.00;;;;;;5049147;28;20597;-76